sensor_id;sensor_type;location;lat;lon;timestamp;P1;durP1;ratioP1;P2;durP2;ratioP2
21806;SDS011;11065;50.786;7.840;2023-07-31T00:02:13;2.57;;;1.50;;
21806;SDS011;11065;50.786;7.840;2023-07-31T00:04:41;3.17;;;1.70;;
21806;SDS011;11065;50.786;7.840;2023-07-31T00:07:09;3.10;;;1.60;;
21806;SDS011;11065;50.786;7.840;2023-07-31T00:09:36;3.60;;;1.60;;
21806;SDS011;11065;50.786;7.840;2023-07-31T00:12:06;4.20;;;1.60;;
21806;SDS011;11065;50.786;7.840;2023-07-31T00:14:35;2.23;;;1.40;;
21806;SDS011;11065;50.786;7.840;2023-07-31T00:17:03;3.77;;;1.60;;
21806;SDS011;11065;50.786;7.840;2023-07-31T00:19:31;4.23;;;1.93;;
21806;SDS011;11065;50.786;7.840;2023-07-31T00:21:59;3.17;;;1.70;;
21806;SDS011;11065;50.786;7.840;2023-07-31T00:24:27;4.00;;;1.70;;
21806;SDS011;11065;50.786;7.840;2023-07-31T00:26:55;6.10;;;1.70;;
21806;SDS011;11065;50.786;7.840;2023-07-31T00:29:23;3.90;;;1.73;;
21806;SDS011;11065;50.786;7.840;2023-07-31T00:31:51;5.50;;;2.00;;
21806;SDS011;11065;50.786;7.840;2023-07-31T00:34:19;4.23;;;2.27;;
21806;SDS011;11065;50.786;7.840;2023-07-31T00:36:47;5.23;;;1.83;;
21806;SDS011;11065;50.786;7.840;2023-07-31T00:39:15;3.63;;;1.90;;
21806;SDS011;11065;50.786;7.840;2023-07-31T00:41:44;3.53;;;1.70;;
21806;SDS011;11065;50.786;7.840;2023-07-31T00:44:12;3.40;;;1.60;;
21806;SDS011;11065;50.786;7.840;2023-07-31T00:46:41;3.13;;;1.77;;
21806;SDS011;11065;50.786;7.840;2023-07-31T00:49:09;3.50;;;1.80;;
21806;SDS011;11065;50.786;7.840;2023-07-31T00:51:38;4.47;;;2.00;;
21806;SDS011;11065;50.786;7.840;2023-07-31T00:54:06;4.57;;;1.83;;
21806;SDS011;11065;50.786;7.840;2023-07-31T00:56:34;4.93;;;2.00;;
21806;SDS011;11065;50.786;7.840;2023-07-31T00:59:02;5.47;;;2.20;;
21806;SDS011;11065;50.786;7.840;2023-07-31T01:01:32;4.20;;;1.90;;
21806;SDS011;11065;50.786;7.840;2023-07-31T01:04:01;3.17;;;1.80;;
21806;SDS011;11065;50.786;7.840;2023-07-31T01:06:30;6.07;;;2.13;;
21806;SDS011;11065;50.786;7.840;2023-07-31T01:09:06;3.80;;;1.70;;
21806;SDS011;11065;50.786;7.840;2023-07-31T01:11:42;3.47;;;1.77;;
21806;SDS011;11065;50.786;7.840;2023-07-31T01:14:14;4.00;;;1.90;;
21806;SDS011;11065;50.786;7.840;2023-07-31T01:16:42;6.53;;;2.00;;
21806;SDS011;11065;50.786;7.840;2023-07-31T01:19:12;4.10;;;2.10;;
21806;SDS011;11065;50.786;7.840;2023-07-31T01:21:51;3.80;;;1.93;;
21806;SDS011;11065;50.786;7.840;2023-07-31T01:24:36;4.00;;;2.03;;
21806;SDS011;11065;50.786;7.840;2023-07-31T01:27:17;4.47;;;1.87;;
21806;SDS011;11065;50.786;7.840;2023-07-31T01:29:52;3.23;;;1.63;;
21806;SDS011;11065;50.786;7.840;2023-07-31T01:32:37;3.63;;;2.20;;
21806;SDS011;11065;50.786;7.840;2023-07-31T01:35:08;5.53;;;2.40;;
21806;SDS011;11065;50.786;7.840;2023-07-31T01:37:36;2.93;;;1.50;;
21806;SDS011;11065;50.786;7.840;2023-07-31T01:40:05;5.47;;;1.73;;
21806;SDS011;11065;50.786;7.840;2023-07-31T01:42:35;3.60;;;1.60;;
21806;SDS011;11065;50.786;7.840;2023-07-31T01:45:03;3.80;;;1.93;;
21806;SDS011;11065;50.786;7.840;2023-07-31T01:47:32;4.13;;;1.60;;
21806;SDS011;11065;50.786;7.840;2023-07-31T01:50:00;3.20;;;1.60;;
21806;SDS011;11065;50.786;7.840;2023-07-31T01:52:28;3.30;;;1.50;;
21806;SDS011;11065;50.786;7.840;2023-07-31T01:54:56;2.33;;;1.67;;
21806;SDS011;11065;50.786;7.840;2023-07-31T01:57:24;3.50;;;1.80;;
21806;SDS011;11065;50.786;7.840;2023-07-31T01:59:53;2.67;;;1.67;;
21806;SDS011;11065;50.786;7.840;2023-07-31T02:02:22;3.57;;;1.57;;
21806;SDS011;11065;50.786;7.840;2023-07-31T02:04:50;4.80;;;1.73;;
21806;SDS011;11065;50.786;7.840;2023-07-31T02:07:18;3.27;;;1.63;;
21806;SDS011;11065;50.786;7.840;2023-07-31T02:09:46;3.33;;;1.40;;
21806;SDS011;11065;50.786;7.840;2023-07-31T02:12:14;3.40;;;1.43;;
21806;SDS011;11065;50.786;7.840;2023-07-31T02:14:43;3.37;;;1.50;;
21806;SDS011;11065;50.786;7.840;2023-07-31T02:17:12;2.60;;;1.30;;
21806;SDS011;11065;50.786;7.840;2023-07-31T02:19:40;4.23;;;1.70;;
21806;SDS011;11065;50.786;7.840;2023-07-31T02:22:08;2.97;;;1.53;;
21806;SDS011;11065;50.786;7.840;2023-07-31T02:24:36;3.20;;;1.67;;
21806;SDS011;11065;50.786;7.840;2023-07-31T02:27:05;2.73;;;1.30;;
21806;SDS011;11065;50.786;7.840;2023-07-31T02:29:33;3.17;;;1.97;;
21806;SDS011;11065;50.786;7.840;2023-07-31T02:32:01;3.60;;;1.40;;
21806;SDS011;11065;50.786;7.840;2023-07-31T02:34:31;3.47;;;1.80;;
21806;SDS011;11065;50.786;7.840;2023-07-31T02:36:59;3.77;;;1.70;;
21806;SDS011;11065;50.786;7.840;2023-07-31T02:39:27;3.60;;;1.60;;
21806;SDS011;11065;50.786;7.840;2023-07-31T02:41:55;4.63;;;1.93;;
21806;SDS011;11065;50.786;7.840;2023-07-31T02:44:23;3.77;;;2.00;;
21806;SDS011;11065;50.786;7.840;2023-07-31T02:46:51;4.10;;;1.90;;
21806;SDS011;11065;50.786;7.840;2023-07-31T02:49:19;3.70;;;1.80;;
21806;SDS011;11065;50.786;7.840;2023-07-31T02:51:48;3.63;;;1.73;;
21806;SDS011;11065;50.786;7.840;2023-07-31T02:54:16;3.60;;;1.73;;
21806;SDS011;11065;50.786;7.840;2023-07-31T02:56:44;4.13;;;1.53;;
21806;SDS011;11065;50.786;7.840;2023-07-31T02:59:12;5.27;;;1.77;;
21806;SDS011;11065;50.786;7.840;2023-07-31T03:01:40;3.97;;;2.00;;
21806;SDS011;11065;50.786;7.840;2023-07-31T03:04:08;3.63;;;1.73;;
21806;SDS011;11065;50.786;7.840;2023-07-31T03:06:36;4.30;;;1.87;;
21806;SDS011;11065;50.786;7.840;2023-07-31T03:09:06;4.10;;;1.77;;
21806;SDS011;11065;50.786;7.840;2023-07-31T03:11:34;3.27;;;1.93;;
21806;SDS011;11065;50.786;7.840;2023-07-31T03:14:02;3.50;;;1.87;;
21806;SDS011;11065;50.786;7.840;2023-07-31T03:16:30;4.80;;;2.10;;
21806;SDS011;11065;50.786;7.840;2023-07-31T03:18:58;4.07;;;2.00;;
21806;SDS011;11065;50.786;7.840;2023-07-31T03:21:26;3.37;;;1.70;;
21806;SDS011;11065;50.786;7.840;2023-07-31T03:23:54;4.37;;;2.23;;
21806;SDS011;11065;50.786;7.840;2023-07-31T03:26:23;2.93;;;1.70;;
21806;SDS011;11065;50.786;7.840;2023-07-31T03:28:51;3.90;;;1.77;;
21806;SDS011;11065;50.786;7.840;2023-07-31T03:31:19;3.70;;;1.77;;
21806;SDS011;11065;50.786;7.840;2023-07-31T03:33:47;4.47;;;1.97;;
21806;SDS011;11065;50.786;7.840;2023-07-31T03:36:15;3.03;;;1.77;;
21806;SDS011;11065;50.786;7.840;2023-07-31T03:38:43;3.57;;;1.97;;
21806;SDS011;11065;50.786;7.840;2023-07-31T03:41:11;6.20;;;2.10;;
21806;SDS011;11065;50.786;7.840;2023-07-31T03:43:40;4.80;;;2.13;;
21806;SDS011;11065;50.786;7.840;2023-07-31T03:46:08;3.47;;;1.70;;
21806;SDS011;11065;50.786;7.840;2023-07-31T03:48:37;3.70;;;1.77;;
21806;SDS011;11065;50.786;7.840;2023-07-31T03:51:05;3.17;;;1.97;;
21806;SDS011;11065;50.786;7.840;2023-07-31T03:53:33;6.10;;;2.97;;
21806;SDS011;11065;50.786;7.840;2023-07-31T03:56:01;4.07;;;1.90;;
21806;SDS011;11065;50.786;7.840;2023-07-31T03:58:29;4.47;;;1.83;;
21806;SDS011;11065;50.786;7.840;2023-07-31T04:00:58;4.80;;;1.87;;
21806;SDS011;11065;50.786;7.840;2023-07-31T04:03:26;5.00;;;1.93;;
21806;SDS011;11065;50.786;7.840;2023-07-31T04:05:54;5.03;;;2.30;;
21806;SDS011;11065;50.786;7.840;2023-07-31T04:08:22;4.37;;;2.43;;
21806;SDS011;11065;50.786;7.840;2023-07-31T04:10:51;3.50;;;1.80;;
21806;SDS011;11065;50.786;7.840;2023-07-31T04:13:19;4.73;;;2.07;;
21806;SDS011;11065;50.786;7.840;2023-07-31T04:15:50;7.80;;;2.53;;
21806;SDS011;11065;50.786;7.840;2023-07-31T04:18:19;4.10;;;1.90;;
21806;SDS011;11065;50.786;7.840;2023-07-31T04:20:47;6.10;;;2.50;;
21806;SDS011;11065;50.786;7.840;2023-07-31T04:23:15;5.47;;;2.07;;
21806;SDS011;11065;50.786;7.840;2023-07-31T04:25:43;5.00;;;2.33;;
21806;SDS011;11065;50.786;7.840;2023-07-31T04:28:11;6.00;;;2.40;;
21806;SDS011;11065;50.786;7.840;2023-07-31T04:30:39;4.40;;;2.27;;
21806;SDS011;11065;50.786;7.840;2023-07-31T04:33:07;3.80;;;2.13;;
21806;SDS011;11065;50.786;7.840;2023-07-31T04:35:37;5.53;;;2.20;;
21806;SDS011;11065;50.786;7.840;2023-07-31T04:38:05;3.50;;;1.87;;
21806;SDS011;11065;50.786;7.840;2023-07-31T04:40:33;4.93;;;2.10;;
21806;SDS011;11065;50.786;7.840;2023-07-31T04:43:01;4.33;;;2.13;;
21806;SDS011;11065;50.786;7.840;2023-07-31T04:45:29;5.10;;;2.20;;
21806;SDS011;11065;50.786;7.840;2023-07-31T04:47:56;3.83;;;1.90;;
21806;SDS011;11065;50.786;7.840;2023-07-31T04:50:24;4.67;;;2.20;;
21806;SDS011;11065;50.786;7.840;2023-07-31T04:52:54;6.50;;;2.63;;
21806;SDS011;11065;50.786;7.840;2023-07-31T04:55:22;5.27;;;2.33;;
21806;SDS011;11065;50.786;7.840;2023-07-31T04:57:50;4.23;;;1.87;;
21806;SDS011;11065;50.786;7.840;2023-07-31T05:00:18;4.47;;;2.27;;
21806;SDS011;11065;50.786;7.840;2023-07-31T05:02:46;4.53;;;2.40;;
21806;SDS011;11065;50.786;7.840;2023-07-31T05:05:14;3.27;;;1.77;;
21806;SDS011;11065;50.786;7.840;2023-07-31T05:07:42;4.87;;;2.10;;
21806;SDS011;11065;50.786;7.840;2023-07-31T05:10:11;5.93;;;2.50;;
21806;SDS011;11065;50.786;7.840;2023-07-31T05:12:39;4.00;;;2.10;;
21806;SDS011;11065;50.786;7.840;2023-07-31T05:15:07;4.30;;;2.07;;
21806;SDS011;11065;50.786;7.840;2023-07-31T05:17:36;3.27;;;1.63;;
21806;SDS011;11065;50.786;7.840;2023-07-31T05:20:04;3.70;;;2.30;;
21806;SDS011;11065;50.786;7.840;2023-07-31T05:22:33;5.07;;;2.27;;
21806;SDS011;11065;50.786;7.840;2023-07-31T05:25:01;4.40;;;2.33;;
21806;SDS011;11065;50.786;7.840;2023-07-31T05:27:31;4.47;;;2.40;;
21806;SDS011;11065;50.786;7.840;2023-07-31T05:29:59;4.07;;;2.07;;
21806;SDS011;11065;50.786;7.840;2023-07-31T05:32:28;5.10;;;2.00;;
21806;SDS011;11065;50.786;7.840;2023-07-31T05:34:56;3.53;;;1.87;;
21806;SDS011;11065;50.786;7.840;2023-07-31T05:37:24;6.10;;;2.23;;
21806;SDS011;11065;50.786;7.840;2023-07-31T05:39:52;5.13;;;2.70;;
21806;SDS011;11065;50.786;7.840;2023-07-31T05:42:19;5.03;;;2.20;;
21806;SDS011;11065;50.786;7.840;2023-07-31T05:44:49;4.53;;;2.23;;
21806;SDS011;11065;50.786;7.840;2023-07-31T05:47:17;4.17;;;2.00;;
21806;SDS011;11065;50.786;7.840;2023-07-31T05:49:45;4.67;;;2.10;;
21806;SDS011;11065;50.786;7.840;2023-07-31T05:52:13;4.63;;;2.00;;
21806;SDS011;11065;50.786;7.840;2023-07-31T05:54:41;3.90;;;1.97;;
21806;SDS011;11065;50.786;7.840;2023-07-31T05:57:09;4.60;;;2.00;;
21806;SDS011;11065;50.786;7.840;2023-07-31T05:59:37;4.03;;;2.00;;
21806;SDS011;11065;50.786;7.840;2023-07-31T06:02:06;4.40;;;2.37;;
21806;SDS011;11065;50.786;7.840;2023-07-31T06:04:34;4.00;;;1.70;;
21806;SDS011;11065;50.786;7.840;2023-07-31T06:07:03;3.27;;;2.00;;
21806;SDS011;11065;50.786;7.840;2023-07-31T06:09:31;4.30;;;2.10;;
21806;SDS011;11065;50.786;7.840;2023-07-31T06:11:59;6.00;;;2.20;;
21806;SDS011;11065;50.786;7.840;2023-07-31T06:14:27;2.53;;;1.80;;
21806;SDS011;11065;50.786;7.840;2023-07-31T06:16:55;5.37;;;2.03;;
21806;SDS011;11065;50.786;7.840;2023-07-31T06:19:24;2.70;;;1.57;;
21806;SDS011;11065;50.786;7.840;2023-07-31T06:21:52;4.97;;;2.10;;
21806;SDS011;11065;50.786;7.840;2023-07-31T06:24:20;5.07;;;2.30;;
21806;SDS011;11065;50.786;7.840;2023-07-31T06:26:48;3.10;;;1.77;;
21806;SDS011;11065;50.786;7.840;2023-07-31T06:29:17;3.83;;;1.70;;
21806;SDS011;11065;50.786;7.840;2023-07-31T06:31:45;3.60;;;2.00;;
21806;SDS011;11065;50.786;7.840;2023-07-31T06:34:13;3.27;;;1.73;;
21806;SDS011;11065;50.786;7.840;2023-07-31T06:36:42;3.70;;;2.07;;
21806;SDS011;11065;50.786;7.840;2023-07-31T06:39:10;3.97;;;1.80;;
21806;SDS011;11065;50.786;7.840;2023-07-31T06:41:38;3.77;;;1.70;;
21806;SDS011;11065;50.786;7.840;2023-07-31T06:44:09;5.70;;;2.03;;
21806;SDS011;11065;50.786;7.840;2023-07-31T06:46:37;2.67;;;1.70;;
21806;SDS011;11065;50.786;7.840;2023-07-31T06:49:06;4.30;;;1.97;;
21806;SDS011;11065;50.786;7.840;2023-07-31T06:51:34;4.17;;;2.00;;
21806;SDS011;11065;50.786;7.840;2023-07-31T06:54:03;3.87;;;1.93;;
21806;SDS011;11065;50.786;7.840;2023-07-31T06:56:31;3.83;;;1.80;;
21806;SDS011;11065;50.786;7.840;2023-07-31T06:58:59;3.67;;;1.90;;
21806;SDS011;11065;50.786;7.840;2023-07-31T07:01:28;3.77;;;1.77;;
21806;SDS011;11065;50.786;7.840;2023-07-31T07:03:56;4.57;;;1.80;;
21806;SDS011;11065;50.786;7.840;2023-07-31T07:06:23;4.13;;;1.93;;
21806;SDS011;11065;50.786;7.840;2023-07-31T07:08:51;4.03;;;1.90;;
21806;SDS011;11065;50.786;7.840;2023-07-31T07:11:21;3.93;;;2.10;;
21806;SDS011;11065;50.786;7.840;2023-07-31T07:13:49;3.20;;;1.90;;
21806;SDS011;11065;50.786;7.840;2023-07-31T07:16:17;3.30;;;1.87;;
21806;SDS011;11065;50.786;7.840;2023-07-31T07:18:45;4.23;;;2.10;;
21806;SDS011;11065;50.786;7.840;2023-07-31T07:21:29;3.73;;;1.93;;
21806;SDS011;11065;50.786;7.840;2023-07-31T07:23:57;4.83;;;2.13;;
21806;SDS011;11065;50.786;7.840;2023-07-31T07:26:27;3.80;;;1.93;;
21806;SDS011;11065;50.786;7.840;2023-07-31T07:28:55;4.57;;;2.17;;
21806;SDS011;11065;50.786;7.840;2023-07-31T07:31:26;4.27;;;1.97;;
21806;SDS011;11065;50.786;7.840;2023-07-31T07:33:54;3.73;;;2.10;;
21806;SDS011;11065;50.786;7.840;2023-07-31T07:36:23;4.47;;;2.27;;
21806;SDS011;11065;50.786;7.840;2023-07-31T07:38:51;5.20;;;2.30;;
21806;SDS011;11065;50.786;7.840;2023-07-31T07:41:19;4.60;;;1.90;;
21806;SDS011;11065;50.786;7.840;2023-07-31T07:43:48;5.23;;;1.60;;
21806;SDS011;11065;50.786;7.840;2023-07-31T07:46:17;5.47;;;2.70;;
21806;SDS011;11065;50.786;7.840;2023-07-31T07:48:45;3.87;;;2.17;;
21806;SDS011;11065;50.786;7.840;2023-07-31T07:51:13;4.97;;;2.40;;
21806;SDS011;11065;50.786;7.840;2023-07-31T07:53:41;3.80;;;2.00;;
21806;SDS011;11065;50.786;7.840;2023-07-31T07:56:09;4.67;;;2.20;;
21806;SDS011;11065;50.786;7.840;2023-07-31T07:58:37;5.87;;;2.23;;
21806;SDS011;11065;50.786;7.840;2023-07-31T08:01:06;5.47;;;2.40;;
21806;SDS011;11065;50.786;7.840;2023-07-31T08:03:34;4.23;;;1.93;;
21806;SDS011;11065;50.786;7.840;2023-07-31T08:06:03;5.90;;;2.57;;
21806;SDS011;11065;50.786;7.840;2023-07-31T08:08:30;4.80;;;2.27;;
21806;SDS011;11065;50.786;7.840;2023-07-31T08:10:58;6.20;;;2.53;;
21806;SDS011;11065;50.786;7.840;2023-07-31T08:13:26;4.80;;;2.30;;
21806;SDS011;11065;50.786;7.840;2023-07-31T08:15:54;5.47;;;2.30;;
21806;SDS011;11065;50.786;7.840;2023-07-31T08:18:24;5.07;;;2.13;;
21806;SDS011;11065;50.786;7.840;2023-07-31T08:20:52;5.70;;;3.00;;
21806;SDS011;11065;50.786;7.840;2023-07-31T08:23:20;6.13;;;2.60;;
21806;SDS011;11065;50.786;7.840;2023-07-31T08:25:48;4.57;;;2.40;;
21806;SDS011;11065;50.786;7.840;2023-07-31T08:28:16;4.73;;;2.47;;
21806;SDS011;11065;50.786;7.840;2023-07-31T08:30:45;6.90;;;2.33;;
21806;SDS011;11065;50.786;7.840;2023-07-31T08:33:13;5.70;;;2.60;;
21806;SDS011;11065;50.786;7.840;2023-07-31T08:35:42;3.80;;;2.27;;
21806;SDS011;11065;50.786;7.840;2023-07-31T08:38:10;7.13;;;2.70;;
21806;SDS011;11065;50.786;7.840;2023-07-31T08:40:39;5.27;;;2.67;;
21806;SDS011;11065;50.786;7.840;2023-07-31T08:43:08;6.30;;;2.60;;
21806;SDS011;11065;50.786;7.840;2023-07-31T08:45:36;4.17;;;2.37;;
21806;SDS011;11065;50.786;7.840;2023-07-31T08:48:04;5.13;;;2.70;;
21806;SDS011;11065;50.786;7.840;2023-07-31T08:50:33;4.67;;;2.80;;
21806;SDS011;11065;50.786;7.840;2023-07-31T08:53:02;6.13;;;2.50;;
21806;SDS011;11065;50.786;7.840;2023-07-31T08:55:30;4.17;;;2.40;;
21806;SDS011;11065;50.786;7.840;2023-07-31T08:57:59;6.33;;;2.50;;
21806;SDS011;11065;50.786;7.840;2023-07-31T09:00:30;5.20;;;2.40;;
21806;SDS011;11065;50.786;7.840;2023-07-31T09:03:01;5.67;;;2.47;;
21806;SDS011;11065;50.786;7.840;2023-07-31T09:05:31;6.70;;;3.30;;
21806;SDS011;11065;50.786;7.840;2023-07-31T09:08:00;5.80;;;2.70;;
21806;SDS011;11065;50.786;7.840;2023-07-31T09:10:31;4.63;;;2.43;;
21806;SDS011;11065;50.786;7.840;2023-07-31T09:12:59;5.73;;;3.07;;
21806;SDS011;11065;50.786;7.840;2023-07-31T09:15:28;5.97;;;3.00;;
21806;SDS011;11065;50.786;7.840;2023-07-31T09:18:04;5.83;;;2.73;;
21806;SDS011;11065;50.786;7.840;2023-07-31T09:20:33;4.73;;;2.70;;
21806;SDS011;11065;50.786;7.840;2023-07-31T09:23:06;4.30;;;2.37;;
21806;SDS011;11065;50.786;7.840;2023-07-31T09:25:35;4.30;;;2.50;;
21806;SDS011;11065;50.786;7.840;2023-07-31T09:28:04;5.07;;;2.70;;
21806;SDS011;11065;50.786;7.840;2023-07-31T09:30:44;6.27;;;2.70;;
21806;SDS011;11065;50.786;7.840;2023-07-31T09:33:13;4.80;;;2.50;;
21806;SDS011;11065;50.786;7.840;2023-07-31T09:35:42;4.30;;;2.70;;
21806;SDS011;11065;50.786;7.840;2023-07-31T09:38:12;5.13;;;2.60;;
21806;SDS011;11065;50.786;7.840;2023-07-31T09:40:41;4.50;;;2.73;;
21806;SDS011;11065;50.786;7.840;2023-07-31T09:43:10;5.30;;;2.60;;
21806;SDS011;11065;50.786;7.840;2023-07-31T09:45:40;3.90;;;2.60;;
21806;SDS011;11065;50.786;7.840;2023-07-31T09:48:09;4.30;;;2.10;;
21806;SDS011;11065;50.786;7.840;2023-07-31T09:50:39;5.70;;;2.70;;
21806;SDS011;11065;50.786;7.840;2023-07-31T09:53:08;5.10;;;2.37;;
21806;SDS011;11065;50.786;7.840;2023-07-31T09:55:38;7.47;;;2.40;;
21806;SDS011;11065;50.786;7.840;2023-07-31T09:58:07;5.17;;;2.43;;
21806;SDS011;11065;50.786;7.840;2023-07-31T10:00:36;4.57;;;2.43;;
21806;SDS011;11065;50.786;7.840;2023-07-31T10:03:06;5.23;;;2.57;;
21806;SDS011;11065;50.786;7.840;2023-07-31T10:05:35;4.73;;;2.43;;
21806;SDS011;11065;50.786;7.840;2023-07-31T10:08:06;4.60;;;2.53;;
21806;SDS011;11065;50.786;7.840;2023-07-31T10:10:37;4.53;;;2.30;;
21806;SDS011;11065;50.786;7.840;2023-07-31T10:13:08;4.80;;;2.53;;
21806;SDS011;11065;50.786;7.840;2023-07-31T10:15:36;4.67;;;2.40;;
21806;SDS011;11065;50.786;7.840;2023-07-31T10:18:05;4.93;;;2.40;;
21806;SDS011;11065;50.786;7.840;2023-07-31T10:20:34;5.20;;;2.60;;
21806;SDS011;11065;50.786;7.840;2023-07-31T10:23:03;5.37;;;2.73;;
21806;SDS011;11065;50.786;7.840;2023-07-31T10:25:31;6.30;;;2.77;;
21806;SDS011;11065;50.786;7.840;2023-07-31T10:28:01;4.23;;;2.20;;
21806;SDS011;11065;50.786;7.840;2023-07-31T10:30:31;6.03;;;2.70;;
21806;SDS011;11065;50.786;7.840;2023-07-31T10:33:00;4.63;;;2.47;;
21806;SDS011;11065;50.786;7.840;2023-07-31T10:35:30;5.97;;;2.80;;
21806;SDS011;11065;50.786;7.840;2023-07-31T10:38:03;5.23;;;2.57;;
21806;SDS011;11065;50.786;7.840;2023-07-31T10:40:38;5.37;;;3.40;;
21806;SDS011;11065;50.786;7.840;2023-07-31T10:43:07;5.70;;;2.63;;
21806;SDS011;11065;50.786;7.840;2023-07-31T10:45:38;4.67;;;2.50;;
21806;SDS011;11065;50.786;7.840;2023-07-31T10:48:07;5.27;;;2.47;;
21806;SDS011;11065;50.786;7.840;2023-07-31T10:50:46;5.83;;;2.83;;
21806;SDS011;11065;50.786;7.840;2023-07-31T10:53:22;5.07;;;2.50;;
21806;SDS011;11065;50.786;7.840;2023-07-31T10:55:50;4.00;;;2.53;;
21806;SDS011;11065;50.786;7.840;2023-07-31T10:58:20;5.80;;;2.50;;
21806;SDS011;11065;50.786;7.840;2023-07-31T11:00:49;4.87;;;2.80;;
21806;SDS011;11065;50.786;7.840;2023-07-31T11:03:19;4.73;;;2.57;;
21806;SDS011;11065;50.786;7.840;2023-07-31T11:05:49;4.83;;;2.80;;
21806;SDS011;11065;50.786;7.840;2023-07-31T11:08:20;4.10;;;2.07;;
21806;SDS011;11065;50.786;7.840;2023-07-31T11:10:50;4.47;;;2.23;;
21806;SDS011;11065;50.786;7.840;2023-07-31T11:13:33;6.17;;;2.93;;
21806;SDS011;11065;50.786;7.840;2023-07-31T11:16:06;4.00;;;2.07;;
21806;SDS011;11065;50.786;7.840;2023-07-31T11:18:34;5.47;;;2.47;;
21806;SDS011;11065;50.786;7.840;2023-07-31T11:21:03;6.00;;;2.53;;
21806;SDS011;11065;50.786;7.840;2023-07-31T11:23:31;5.73;;;2.07;;
21806;SDS011;11065;50.786;7.840;2023-07-31T11:25:59;4.93;;;2.50;;
21806;SDS011;11065;50.786;7.840;2023-07-31T11:28:31;4.73;;;2.17;;
21806;SDS011;11065;50.786;7.840;2023-07-31T11:31:01;5.67;;;2.70;;
21806;SDS011;11065;50.786;7.840;2023-07-31T11:33:30;5.37;;;2.37;;
21806;SDS011;11065;50.786;7.840;2023-07-31T11:35:58;4.30;;;2.13;;
21806;SDS011;11065;50.786;7.840;2023-07-31T11:38:27;5.63;;;2.13;;
21806;SDS011;11065;50.786;7.840;2023-07-31T11:40:57;5.13;;;2.37;;
21806;SDS011;11065;50.786;7.840;2023-07-31T11:43:27;4.20;;;2.17;;
21806;SDS011;11065;50.786;7.840;2023-07-31T11:45:57;4.50;;;2.30;;
21806;SDS011;11065;50.786;7.840;2023-07-31T11:48:27;3.90;;;2.37;;
21806;SDS011;11065;50.786;7.840;2023-07-31T11:50:57;3.73;;;2.10;;
21806;SDS011;11065;50.786;7.840;2023-07-31T11:53:26;5.27;;;2.20;;
21806;SDS011;11065;50.786;7.840;2023-07-31T11:55:59;3.20;;;2.00;;
21806;SDS011;11065;50.786;7.840;2023-07-31T11:58:28;4.50;;;1.97;;
21806;SDS011;11065;50.786;7.840;2023-07-31T12:00:59;4.23;;;2.03;;
21806;SDS011;11065;50.786;7.840;2023-07-31T12:03:28;3.93;;;1.93;;
21806;SDS011;11065;50.786;7.840;2023-07-31T12:05:56;4.33;;;2.17;;
21806;SDS011;11065;50.786;7.840;2023-07-31T12:08:25;6.65;;;2.13;;
21806;SDS011;11065;50.786;7.840;2023-07-31T12:10:54;3.13;;;1.93;;
21806;SDS011;11065;50.786;7.840;2023-07-31T12:13:22;3.67;;;2.00;;
21806;SDS011;11065;50.786;7.840;2023-07-31T12:15:53;4.70;;;1.80;;
21806;SDS011;11065;50.786;7.840;2023-07-31T12:18:24;4.10;;;1.93;;
21806;SDS011;11065;50.786;7.840;2023-07-31T12:20:53;6.00;;;1.90;;
21806;SDS011;11065;50.786;7.840;2023-07-31T12:23:23;4.78;;;1.80;;
21806;SDS011;11065;50.786;7.840;2023-07-31T12:26:00;3.50;;;1.70;;
21806;SDS011;11065;50.786;7.840;2023-07-31T12:28:29;5.37;;;2.30;;
21806;SDS011;11065;50.786;7.840;2023-07-31T12:30:58;3.03;;;1.70;;
21806;SDS011;11065;50.786;7.840;2023-07-31T12:33:31;4.43;;;2.10;;
21806;SDS011;11065;50.786;7.840;2023-07-31T12:36:01;4.13;;;1.93;;
21806;SDS011;11065;50.786;7.840;2023-07-31T12:38:29;4.67;;;1.70;;
21806;SDS011;11065;50.786;7.840;2023-07-31T12:40:57;3.27;;;1.47;;
21806;SDS011;11065;50.786;7.840;2023-07-31T12:43:25;6.23;;;1.87;;
21806;SDS011;11065;50.786;7.840;2023-07-31T12:45:53;2.97;;;1.47;;
21806;SDS011;11065;50.786;7.840;2023-07-31T12:48:22;3.37;;;1.73;;
21806;SDS011;11065;50.786;7.840;2023-07-31T12:50:52;4.20;;;1.60;;
21806;SDS011;11065;50.786;7.840;2023-07-31T12:53:20;3.37;;;1.40;;
21806;SDS011;11065;50.786;7.840;2023-07-31T12:55:48;4.93;;;1.57;;
21806;SDS011;11065;50.786;7.840;2023-07-31T12:58:16;2.17;;;1.05;;
21806;SDS011;11065;50.786;7.840;2023-07-31T13:00:44;1.80;;;1.27;;
21806;SDS011;11065;50.786;7.840;2023-07-31T13:03:12;2.40;;;1.30;;
21806;SDS011;11065;50.786;7.840;2023-07-31T13:05:41;2.42;;;1.33;;
21806;SDS011;11065;50.786;7.840;2023-07-31T13:08:10;2.22;;;1.10;;
21806;SDS011;11065;50.786;7.840;2023-07-31T13:10:38;2.72;;;1.15;;
21806;SDS011;11065;50.786;7.840;2023-07-31T13:13:06;2.65;;;1.48;;
21806;SDS011;11065;50.786;7.840;2023-07-31T13:15:34;2.10;;;1.20;;
21806;SDS011;11065;50.786;7.840;2023-07-31T13:18:02;1.60;;;1.10;;
21806;SDS011;11065;50.786;7.840;2023-07-31T13:20:30;2.60;;;1.30;;
21806;SDS011;11065;50.786;7.840;2023-07-31T13:22:58;2.85;;;1.13;;
21806;SDS011;11065;50.786;7.840;2023-07-31T13:25:28;2.70;;;1.10;;
21806;SDS011;11065;50.786;7.840;2023-07-31T13:27:56;2.83;;;1.33;;
21806;SDS011;11065;50.786;7.840;2023-07-31T13:30:28;3.08;;;1.20;;
21806;SDS011;11065;50.786;7.840;2023-07-31T13:32:56;3.67;;;1.33;;
21806;SDS011;11065;50.786;7.840;2023-07-31T13:35:24;2.20;;;1.30;;
21806;SDS011;11065;50.786;7.840;2023-07-31T13:37:52;2.63;;;1.10;;
21806;SDS011;11065;50.786;7.840;2023-07-31T13:40:20;1.73;;;1.00;;
21806;SDS011;11065;50.786;7.840;2023-07-31T13:42:50;3.65;;;1.30;;
21806;SDS011;11065;50.786;7.840;2023-07-31T13:45:18;2.30;;;1.13;;
21806;SDS011;11065;50.786;7.840;2023-07-31T13:47:46;2.30;;;1.30;;
21806;SDS011;11065;50.786;7.840;2023-07-31T13:50:14;2.37;;;1.13;;
21806;SDS011;11065;50.786;7.840;2023-07-31T13:52:43;3.85;;;1.63;;
21806;SDS011;11065;50.786;7.840;2023-07-31T13:55:10;3.22;;;1.70;;
21806;SDS011;11065;50.786;7.840;2023-07-31T13:57:38;1.90;;;1.23;;
21806;SDS011;11065;50.786;7.840;2023-07-31T14:00:08;3.08;;;1.55;;
21806;SDS011;11065;50.786;7.840;2023-07-31T14:02:37;2.28;;;1.20;;
21806;SDS011;11065;50.786;7.840;2023-07-31T14:05:05;3.40;;;1.80;;
21806;SDS011;11065;50.786;7.840;2023-07-31T14:07:35;3.08;;;1.70;;
21806;SDS011;11065;50.786;7.840;2023-07-31T14:10:04;2.35;;;1.58;;
21806;SDS011;11065;50.786;7.840;2023-07-31T14:12:32;5.13;;;2.20;;
21806;SDS011;11065;50.786;7.840;2023-07-31T14:15:09;3.60;;;1.58;;
21806;SDS011;11065;50.786;7.840;2023-07-31T14:17:38;4.05;;;1.95;;
21806;SDS011;11065;50.786;7.840;2023-07-31T14:20:07;2.75;;;1.60;;
21806;SDS011;11065;50.786;7.840;2023-07-31T14:22:36;3.33;;;1.95;;
21806;SDS011;11065;50.786;7.840;2023-07-31T14:25:05;3.70;;;2.10;;
21806;SDS011;11065;50.786;7.840;2023-07-31T14:27:33;3.55;;;2.15;;
21806;SDS011;11065;50.786;7.840;2023-07-31T14:30:01;3.38;;;1.83;;
21806;SDS011;11065;50.786;7.840;2023-07-31T14:32:30;3.85;;;2.13;;
21806;SDS011;11065;50.786;7.840;2023-07-31T14:34:58;2.88;;;1.88;;
21806;SDS011;11065;50.786;7.840;2023-07-31T14:37:26;3.58;;;1.77;;
21806;SDS011;11065;50.786;7.840;2023-07-31T14:40:03;3.67;;;2.30;;
21806;SDS011;11065;50.786;7.840;2023-07-31T14:42:32;3.60;;;2.15;;
21806;SDS011;11065;50.786;7.840;2023-07-31T14:45:01;2.85;;;1.73;;
21806;SDS011;11065;50.786;7.840;2023-07-31T14:47:31;3.90;;;2.00;;
21806;SDS011;11065;50.786;7.840;2023-07-31T14:49:59;3.03;;;1.83;;
21806;SDS011;11065;50.786;7.840;2023-07-31T14:52:27;3.13;;;1.80;;
21806;SDS011;11065;50.786;7.840;2023-07-31T14:54:55;2.78;;;1.60;;
21806;SDS011;11065;50.786;7.840;2023-07-31T14:57:23;2.20;;;1.60;;
21806;SDS011;11065;50.786;7.840;2023-07-31T14:59:52;2.47;;;1.60;;